Time;durP1;ratioP1;P1;durP2;ratioP2;P2;SDS_P1;SDS_P2;PMS_P1;PMS_P2;Temp;Humidity;BMP_temperature;BMP_pressure;BME280_temperature;BME280_humidity;BME280_pressure;Samples;Min_cycle;Max_cycle;Signal;HPM_P1;HPM_P2
2023/10/02 00:00:40;;;;;;;;;;;;;;;;;;5070697;28;19909;-75
2023/10/02 00:03:09;;;;;;;;;;;;;;;;;;5071002;28;19955;-76
2023/10/02 00:06:23;;;;;;;;;;;;;;;;;;5091586;27;20291;-74
2023/10/02 00:08:49;;;;;;;;;;;;;;;;;;5091189;28;19916;-74
2023/10/02 00:12:59;;;;;;;;;;;;;;;;;;5111840;27;20251;-74
2023/10/02 00:15:25;;;;;;;;;;;;;;;;;;5110052;28;20360;-74
2023/10/02 00:17:51;;;;;;;;;;;;;;;;;;5111663;28;19951;-74
2023/10/02 00:20:26;;;;;;;;;;;;;;;;;;5111885;28;19908;-74
2023/10/02 00:24:17;;;;;;;;;;;;;;;;;;5111925;27;20415;-74
2023/10/02 00:26:44;;;;;;;;;;;;;;;;;;5111738;28;19953;-73
2023/10/02 00:31:08;;;;;;;;;;;;;;;;;;5132828;27;19922;-74
2023/10/02 00:33:42;;;;;;;;;;;;;;;;;;5091467;27;19924;-74
2023/10/02 00:36:30;;;;;;;;;;;;;;;;;;5091375;27;20269;-74
2023/10/02 00:38:56;;;;;;;;;;;;;;;;;;5091549;28;19912;-74
2023/10/02 00:41:21;;;;;;;;;;;;;;;;;;5090002;28;19934;-75
2023/10/02 00:43:47;;;;;;;;;;;;;;;;;;5091101;28;19912;-75
2023/10/02 00:46:23;;;;;;;;;;;;;;;;;;5091246;28;19909;-74
2023/10/02 00:48:49;;;;;;;;;;;;;;;;;;5091332;28;20260;-75
2023/10/02 00:51:15;;;;;;;;;;;;;;;;;;5090743;28;19933;-75
2023/10/02 00:53:53;;;;;;;;;;;;;;;;;;5091133;28;19947;-75
2023/10/02 00:56:19;;;;;;;;;;;;;;;;;;5090989;28;19935;-75
2023/10/02 01:01:13;;;;;;;;;;;;;;;;;;5111838;27;19916;-74
2023/10/02 01:04:07;;;;;;;;;;;;;;;;;;5111327;28;20007;-75
2023/10/02 01:07:40;;;;;;;;;;;;;;;;;;5112557;27;19916;-74
2023/10/02 01:10:07;;;;;;;;;;;;;;;;;;5111788;28;20354;-75
2023/10/02 01:12:43;;;;;;;;;;;;;;;;;;5111281;28;19908;-74
2023/10/02 01:15:12;;;;;;;;;;;;;;;;;;5111676;28;19918;-74
2023/10/02 01:17:39;;;;;;;;;;;;;;;;;;5111133;28;19951;-75
2023/10/02 01:20:09;;;;;;;;;;;;;;;;;;5111553;28;20392;-74
2023/10/02 01:24:33;;;;;;;;;;;;;;;;;;5071250;28;19923;-74
2023/10/02 01:26:59;;;;;;;;;;;;;;;;;;5071358;28;19913;-73
2023/10/02 01:29:25;;;;;;;;;;;;;;;;;;5071164;28;19962;-73
2023/10/02 01:31:52;;;;;;;;;;;;;;;;;;5069456;28;20015;-74
2023/10/02 01:34:33;;;;;;;;;;;;;;;;;;5069784;28;20347;-75
2023/10/02 01:37:00;;;;;;;;;;;;;;;;;;5070993;28;19999;-75
2023/10/02 01:39:26;;;;;;;;;;;;;;;;;;5070739;28;19916;-75
2023/10/02 01:41:55;;;;;;;;;;;;;;;;;;5070884;28;20297;-75
2023/10/02 01:44:22;;;;;;;;;;;;;;;;;;5070798;28;19917;-75
2023/10/02 01:46:52;;;;;;;;;;;;;;;;;;5070321;28;19909;-75
2023/10/02 01:49:24;;;;;;;;;;;;;;;;;;5070760;28;20289;-75
2023/10/02 01:51:50;;;;;;;;;;;;;;;;;;5070751;28;19916;-75
2023/10/02 01:54:16;;;;;;;;;;;;;;;;;;5070254;28;19913;-75
2023/10/02 01:56:45;;;;;;;;;;;;;;;;;;5069283;28;19913;-75
2023/10/02 02:00:15;;;;;;;;;;;;;;;;;;5091413;27;19923;-74
2023/10/02 02:03:14;;;;;;;;;;;;;;;;;;5091357;28;19912;-74
2023/10/02 02:05:30;;;;;;;;;;;;;;;;;;5091215;28;20364;-74
2023/10/02 02:07:56;;;;;;;;;;;;;;;;;;5090869;28;19951;-75
2023/10/02 02:10:22;;;;;;;;;;;;;;;;;;5091268;28;19908;-75
2023/10/02 02:12:55;;;;;;;;;;;;;;;;;;5091256;28;19954;-76
2023/10/02 02:19:12;;;;;;;;;;;;;;;;;;5091521;27;20291;-74
2023/10/02 02:24:03;;;;;;;;;;;;;;;;;;5112512;27;20338;-75
2023/10/02 02:26:30;;;;;;;;;;;;;;;;;;5112246;28;20007;-75
2023/10/02 02:30:10;;;;;;;;;;;;;;;;;;5111408;27;19919;-75
2023/10/02 02:32:52;;;;;;;;;;;;;;;;;;5110407;28;20011;-75
2023/10/02 02:35:19;;;;;;;;;;;;;;;;;;5111585;28;19912;-75
2023/10/02 02:37:45;;;;;;;;;;;;;;;;;;5111649;28;19908;-75
2023/10/02 02:40:25;;;;;;;;;;;;;;;;;;5111594;28;19955;-75
2023/10/02 02:42:51;;;;;;;;;;;;;;;;;;5111302;28;19908;-74
2023/10/02 02:47:20;;;;;;;;;;;;;;;;;;5112487;27;19916;-74
2023/10/02 02:49:52;;;;;;;;;;;;;;;;;;5111624;28;19937;-74
2023/10/02 02:52:19;;;;;;;;;;;;;;;;;;5110422;28;19916;-74
2023/10/02 02:54:47;;;;;;;;;;;;;;;;;;5111712;28;19908;-74
2023/10/02 02:57:13;;;;;;;;;;;;;;;;;;5111140;28;19912;-75
2023/10/02 02:59:39;;;;;;;;;;;;;;;;;;5111564;28;19912;-75
2023/10/02 03:02:21;;;;;;;;;;;;;;;;;;5111452;28;19908;-75
2023/10/02 03:04:47;;;;;;;;;;;;;;;;;;5109831;28;19915;-75
2023/10/02 03:07:36;;;;;;;;;;;;;;;;;;5111412;28;19916;-75
2023/10/02 03:10:02;;;;;;;;;;;;;;;;;;5111288;28;20003;-75
2023/10/02 03:12:28;;;;;;;;;;;;;;;;;;5111294;28;19960;-75
2023/10/02 03:14:54;;;;;;;;;;;;;;;;;;5111258;28;20296;-75
2023/10/02 03:17:28;;;;;;;;;;;;;;;;;;5110767;28;19943;-74
2023/10/02 03:19:54;;;;;;;;;;;;;;;;;;5111859;28;19908;-75
2023/10/02 03:22:20;;;;;;;;;;;;;;;;;;5111100;28;20421;-75
2023/10/02 03:24:48;;;;;;;;;;;;;;;;;;5110684;28;19908;-75
2023/10/02 03:27:14;;;;;;;;;;;;;;;;;;5110937;28;20376;-75
2023/10/02 03:29:40;;;;;;;;;;;;;;;;;;5111229;28;20421;-75
2023/10/02 03:32:07;;;;;;;;;;;;;;;;;;5110483;28;19912;-75
2023/10/02 03:34:34;;;;;;;;;;;;;;;;;;5110825;28;19908;-75
2023/10/02 03:37:00;;;;;;;;;;;;;;;;;;5110822;28;19912;-75
2023/10/02 03:42:12;;;;;;;;;;;;;;;;;;5112478;28;20433;-75
2023/10/02 03:44:38;;;;;;;;;;;;;;;;;;5109433;28;19912;-75
2023/10/02 03:47:33;;;;;;;;;;;;;;;;;;5111693;27;19922;-75
2023/10/02 03:50:03;;;;;;;;;;;;;;;;;;5112091;28;19912;-75
2023/10/02 03:52:30;;;;;;;;;;;;;;;;;;5111531;28;19951;-75
2023/10/02 03:54:56;;;;;;;;;;;;;;;;;;5111682;28;19915;-74
2023/10/02 03:57:37;;;;;;;;;;;;;;;;;;5111527;28;19907;-75
2023/10/02 04:02:47;;;;;;;;;;;;;;;;;;5111485;28;19990;-75
2023/10/02 04:05:30;;;;;;;;;;;;;;;;;;5111514;28;19930;-75
2023/10/02 04:08:12;;;;;;;;;;;;;;;;;;5109807;28;20272;-75
2023/10/02 04:10:51;;;;;;;;;;;;;;;;;;5110462;28;19944;-74
2023/10/02 04:13:17;;;;;;;;;;;;;;;;;;5111481;28;19912;-75
2023/10/02 04:15:44;;;;;;;;;;;;;;;;;;5109565;28;19915;-75
2023/10/02 04:18:38;;;;;;;;;;;;;;;;;;5111219;28;19912;-75
2023/10/02 04:21:01;;;;;;;;;;;;;;;;;;5110614;28;19915;-74
2023/10/02 04:23:27;;;;;;;;;;;;;;;;;;5111082;28;20386;-75
2023/10/02 04:25:53;;;;;;;;;;;;;;;;;;5111282;28;19916;-75
2023/10/02 04:28:27;;;;;;;;;;;;;;;;;;5110646;28;20402;-75
2023/10/02 04:33:07;;;;;;;;;;;;;;;;;;5112351;27;19916;-74
2023/10/02 04:35:45;;;;;;;;;;;;;;;;;;5110133;28;19951;-74
2023/10/02 04:38:57;;;;;;;;;;;;;;;;;;5092095;27;19916;-74
2023/10/02 04:45:47;;;;;;;;;;;;;;;;;;5153215;27;19918;-75
2023/10/02 04:48:13;;;;;;;;;;;;;;;;;;5153043;27;19967;-74
2023/10/02 04:50:45;;;;;;;;;;;;;;;;;;5152569;27;19907;-75
2023/10/02 04:55:43;;;;;;;;;;;;;;;;;;5152738;27;19907;-74
2023/10/02 04:58:09;;;;;;;;;;;;;;;;;;5134751;27;19918;-75
2023/10/02 05:02:39;;;;;;;;;;;;;;;;;;5104309;27;19939;-75
2023/10/02 05:05:05;;;;;;;;;;;;;;;;;;5071330;28;20298;-75
2023/10/02 05:07:31;;;;;;;;;;;;;;;;;;5071211;28;19908;-76
2023/10/02 05:09:57;;;;;;;;;;;;;;;;;;5070887;28;20388;-75
2023/10/02 05:12:23;;;;;;;;;;;;;;;;;;5071339;28;20410;-74
2023/10/02 05:16:12;;;;;;;;;;;;;;;;;;5091321;27;19918;-74
2023/10/02 05:18:44;;;;;;;;;;;;;;;;;;5090085;28;19912;-74
2023/10/02 05:21:11;;;;;;;;;;;;;;;;;;5090782;28;19915;-75
2023/10/02 05:23:38;;;;;;;;;;;;;;;;;;5090160;28;19947;-73
2023/10/02 05:26:04;;;;;;;;;;;;;;;;;;5089867;28;19908;-75
2023/10/02 05:28:42;;;;;;;;;;;;;;;;;;5090315;28;19998;-74
2023/10/02 05:31:08;;;;;;;;;;;;;;;;;;5087962;28;19908;-78
2023/10/02 05:33:37;;;;;;;;;;;;;;;;;;5092432;28;19958;-73
2023/10/02 05:36:03;;;;;;;;;;;;;;;;;;5079478;28;19989;-74
2023/10/02 05:38:29;;;;;;;;;;;;;;;;;;5085949;28;20360;-74
2023/10/02 05:40:58;;;;;;;;;;;;;;;;;;5081264;28;19999;-76
2023/10/02 05:44:12;;;;;;;;;;;;;;;;;;5108874;27;20406;-75
2023/10/02 05:46:55;;;;;;;;;;;;;;;;;;5107249;28;19951;-73
2023/10/02 05:49:23;;;;;;;;;;;;;;;;;;5104711;28;19918;-73
2023/10/02 05:51:49;;;;;;;;;;;;;;;;;;5102274;28;19911;-76
2023/10/02 05:54:19;;;;;;;;;;;;;;;;;;5098260;28;19946;-77
2023/10/02 05:56:45;;;;;;;;;;;;;;;;;;5095647;28;19965;-75
2023/10/02 05:59:54;;;;;;;;;;;;;;;;;;5140572;27;19922;-76
2023/10/02 06:02:22;;;;;;;;;;;;;;;;;;5129420;28;19912;-76
2023/10/02 06:04:48;;;;;;;;;;;;;;;;;;5111924;28;20299;-74
2023/10/02 06:07:19;;;;;;;;;;;;;;;;;;5090937;28;19973;-77
2023/10/02 06:09:45;;;;;;;;;;;;;;;;;;5113264;27;20534;-73
2023/10/02 06:12:42;;;;;;;;;;;;;;;;;;5081746;27;20123;-75
2023/10/02 06:17:53;;;;;;;;;;;;;;;;;;5086396;28;20050;-73
2023/10/02 06:20:19;;;;;;;;;;;;;;;;;;5084674;28;19923;-76
2023/10/02 06:25:21;;;;;;;215.37;184.93;;;;;;;;;;5093897;27;21194;-75
2023/10/02 06:27:52;;;;;;;;;;;;;;;;;;5087211;28;20089;-76
2023/10/02 06:30:18;;;;;;;;;;;;;;;;;;5086068;28;19912;-73
2023/10/02 06:34:05;;;;;;;;;;;;;;;;;;5088024;27;20398;-73
2023/10/02 06:36:33;;;;;;;;;;;;;;;;;;5083102;28;19999;-75
2023/10/02 06:40:14;;;;;;;;;;;;;;;;;;5110523;27;19922;-75
2023/10/02 06:42:48;;;;;;;;;;;;;;;;;;5110132;28;19982;-75
2023/10/02 06:45:15;;;;;;;;;;;;;;;;;;5110482;28;19948;-75
2023/10/02 06:47:41;;;;;;;;;;;;;;;;;;5111061;28;19915;-73
2023/10/02 06:53:11;;;;;;;;;;;;;;;;;;5099069;28;20320;-74
2023/10/02 06:55:39;;;;;;;;;;;;;;;;;;5120445;28;19919;-74
2023/10/02 06:59:54;;;;;;;;;;;;;;;;;;5101920;28;19920;-73
2023/10/02 07:03:03;;;;;;;;;;;;;;;;;;5107391;27;19916;-75
2023/10/02 07:05:35;;;;;;;;;;;;;;;;;;5107656;28;19958;-74
2023/10/02 07:08:01;;;;;;;;;;;;;;;;;;5108428;28;19912;-77
2023/10/02 07:10:29;;;;;;;;;;;;;;;;;;5110342;28;19909;-74
2023/10/02 07:12:55;;;;;;;;;;;;;;;;;;5110325;28;19919;-76
2023/10/02 07:17:08;;;;;;;;;;;;;;;;;;5088335;27;19923;-72
2023/10/02 07:19:38;;;;;;;;;;;;;;;;;;5087677;28;19958;-72
2023/10/02 07:24:33;;;;;;;;;;;;;;;;;;5115709;27;20482;-73
2023/10/02 07:26:59;;;;;;;;;;;;;;;;;;5096266;28;19999;-74
2023/10/02 07:29:37;;;;;;;307.95;215.68;;;;;;;;;;5084291;28;20477;-74
2023/10/02 07:32:03;;;;;;;;;;;;;;;;;;5087334;28;20073;-74
2023/10/02 07:34:29;;;;;;;;;;;;;;;;;;5094340;28;19908;-75
2023/10/02 07:36:55;;;;;;;;;;;;;;;;;;5092650;28;20245;-72
2023/10/02 07:39:36;;;;;;;;;;;;;;;;;;5098845;28;20338;-73
2023/10/02 07:42:04;;;;;;;;;;;;;;;;;;5083228;28;20322;-76
2023/10/02 07:44:36;;;;;;;;;;;;;;;;;;5099630;28;19947;-75
2023/10/02 07:47:21;;;;;;;;;;;;;;;;;;5086146;27;19921;-74
2023/10/02 07:49:48;;;;;;;;;;;;;;;;;;5076456;28;19938;-72
2023/10/02 07:52:26;;;;;;;;;;;;;;;;;;5086032;28;19919;-74
2023/10/02 07:54:58;;;;;;;;;;;;;;;;;;5084180;28;19919;-79
2023/10/02 07:57:26;;;;;;;;;;;;;;;;;;5089779;28;20378;-77
2023/10/02 07:59:53;;;;;;;;;;;;;;;;;;5082996;28;20287;-72
2023/10/02 08:02:23;;;;;;;;;;;;;;;;;;5086538;28;19970;-74
2023/10/02 08:04:48;;;;;;;;;;;;;;;;;;5098961;28;19919;-73
2023/10/02 08:07:14;;;;;;;;;;;;;;;;;;5108014;28;19908;-73
2023/10/02 08:09:47;;;;;;;;;;;;;;;;;;5104245;28;19924;-73
2023/10/02 08:12:29;;;;;;;;;;;;;;;;;;5086557;28;20002;-71
2023/10/02 08:14:57;;;;;;;;;;;;;;;;;;5083491;28;19920;-76
2023/10/02 08:17:27;;;;;;;;;;;;;;;;;;5084576;28;20007;-72
2023/10/02 08:19:58;;;;;;;;;;;;;;;;;;5083553;28;19951;-74
2023/10/02 08:22:24;;;;;;;;;;;;;;;;;;5086167;28;19913;-73
2023/10/02 08:24:50;;;;;;;;;;;;;;;;;;5086146;28;19916;-75
2023/10/02 08:27:16;;;;;;;;;;;;;;;;;;5086964;28;19956;-72
2023/10/02 08:29:44;;;;;;;;;;;;;;;;;;5088898;28;19955;-72
2023/10/02 08:32:10;;;;;;;;;;;;;;;;;;5089014;28;19916;-74
2023/10/02 08:34:36;;;;;;;;;;;;;;;;;;5084232;28;19916;-73
2023/10/02 08:37:05;;;;;;;;;;;;;;;;;;5087274;28;19912;-74
2023/10/02 08:39:31;;;;;;;;;;;;;;;;;;5087599;28;19912;-74
2023/10/02 08:41:58;;;;;;;;;;;;;;;;;;5076804;28;20265;-74
2023/10/02 08:44:25;;;;;;;;;;;;;;;;;;5091117;28;19920;-70
2023/10/02 08:46:51;;;;;;;;;;;;;;;;;;5093694;28;20430;-69
2023/10/02 08:49:17;;;;;;;;;;;;;;;;;;5106313;28;19955;-71
2023/10/02 08:51:49;;;;;;;;;;;;;;;;;;5108633;28;19916;-71
2023/10/02 08:54:15;;;;;;;;;;;;;;;;;;5104683;28;19916;-73
2023/10/02 08:56:44;;;;;;;;;;;;;;;;;;5106044;28;20265;-68
2023/10/02 08:59:16;;;;;;;;;;;;;;;;;;5095041;28;20011;-74
2023/10/02 09:01:47;;;;;;;;;;;;;;;;;;5090616;28;19919;-74
2023/10/02 09:04:22;;;;;;;;;;;;;;;;;;5069478;28;20379;-71
2023/10/02 09:06:49;;;;;;;;;;;;;;;;;;5091040;28;19927;-71
2023/10/02 09:11:41;;;;;;;;;;;;;;;;;;5087742;28;19982;-75
2023/10/02 09:14:21;;;;;;;;;;;;;;;;;;5086957;28;20501;-75
2023/10/02 09:16:47;;;;;;;;;;;;;;;;;;5090619;28;19999;-75
2023/10/02 09:19:31;;;;;;;;;;;;;;;;;;5092705;28;19999;-75
2023/10/02 09:22:06;;;;;;;;;;;;;;;;;;5092353;28;20543;-76
2023/10/02 09:24:34;;;;;;;;;;;;;;;;;;5092026;28;19920;-75
2023/10/02 09:27:20;;;;;;;;;;;;;;;;;;5075218;28;19920;-75
2023/10/02 09:29:46;;;;;;;;;;;;;;;;;;5090859;28;19916;-75
2023/10/02 09:32:21;;;;;;;;;;;;;;;;;;5086125;28;19916;-76
2023/10/02 09:35:08;;;;;;;;;;;;;;;;;;5091066;28;19912;-75
2023/10/02 09:37:35;;;;;;;;;;;;;;;;;;5091640;28;19915;-74
2023/10/02 09:40:14;;;;;;;;;;;;;;;;;;5071719;28;19971;-75
2023/10/02 09:42:45;;;;;;;;;;;;;;;;;;5086537;28;19944;-75
2023/10/02 09:45:14;;;;;;;;;;;;;;;;;;5110724;28;20872;-75
2023/10/02 09:47:42;;;;;;;;;;;;;;;;;;5113860;28;20569;-75
2023/10/02 09:50:10;;;;;;;;;;;;;;;;;;5092305;28;19915;-76
2023/10/02 09:52:39;;;;;;;;;;;;;;;;;;5073718;28;19923;-75
2023/10/02 09:55:07;;;;;;;;;;;;;;;;;;5089846;28;19912;-75
2023/10/02 09:57:33;;;;;;;;;;;;;;;;;;5092648;28;19912;-75
2023/10/02 10:00:00;;;;;;;;;;;;;;;;;;5094470;28;19942;-75
2023/10/02 10:05:00;;;;;;;;;;;;;;;;;;5087287;28;19908;-74
2023/10/02 10:07:39;;;;;;;;;;;;;;;;;;5094446;28;20292;-75
2023/10/02 10:10:07;;;;;;;;;;;;;;;;;;5093574;28;19908;-77
2023/10/02 10:12:54;;;;;;;;;;;;;;;;;;5093743;28;19913;-76
2023/10/02 10:15:27;;;;;;;;;;;;;;;;;;5094338;28;20271;-76
2023/10/02 10:17:54;;;;;;;;;;;;;;;;;;5094268;28;19999;-76
2023/10/02 10:20:20;;;;;;;;;;;;;;;;;;5093779;28;19919;-76
2023/10/02 10:22:50;;;;;;;;;;;;;;;;;;5094851;28;19908;-76
2023/10/02 10:27:54;;;;;;;;;;;;;;;;;;5093714;28;19908;-76
2023/10/02 10:33:13;;;;;;;473.27;266.75;;;;;;;;;;5090846;28;20865;-76
2023/10/02 10:35:49;;;;;;;;;;;;;;;;;;5072031;28;20032;-76
2023/10/02 10:38:15;;;;;;;;;;;;;;;;;;5073514;28;19904;-76
2023/10/02 10:40:44;;;;;;;;;;;;;;;;;;5075189;28;19915;-76
2023/10/02 10:43:13;;;;;;;;;;;;;;;;;;5084745;28;20013;-75
2023/10/02 10:45:39;;;;;;;;;;;;;;;;;;5092753;28;20431;-76
2023/10/02 10:48:18;;;;;;;;;;;;;;;;;;5091129;28;19960;-76
2023/10/02 10:50:56;;;;;;;;;;;;;;;;;;5092959;28;19904;-76
2023/10/02 10:53:28;;;;;;;;;;;;;;;;;;5093705;28;20054;-77
2023/10/02 10:55:57;;;;;;;;;;;;;;;;;;5092334;28;20375;-76
2023/10/02 10:58:23;;;;;;;;;;;;;;;;;;5091894;28;19942;-76
2023/10/02 11:00:49;;;;;;;;;;;;;;;;;;5091555;28;19961;-76
2023/10/02 11:03:15;;;;;;;;;;;;;;;;;;5089518;28;20380;-75
2023/10/02 11:05:41;;;;;;;;;;;;;;;;;;5091464;28;19918;-75
2023/10/02 11:08:07;;;;;;;;;;;;;;;;;;5090308;28;19915;-76
2023/10/02 11:10:33;;;;;;;;;;;;;;;;;;5089480;28;19904;-75
2023/10/02 11:13:08;;;;;;;;;;;;;;;;;;5090370;28;19904;-76
2023/10/02 11:15:47;;;;;;;;;;;;;;;;;;5091357;28;20287;-76
2023/10/02 11:18:18;;;;;;;;;;;;;;;;;;5090601;28;19904;-77
2023/10/02 11:20:45;;;;;;;;;;;;;;;;;;5087750;28;19911;-77
2023/10/02 11:23:10;;;;;;;;;;;;;;;;;;5088539;28;19911;-76
2023/10/02 11:25:39;;;;;;;;;;;;;;;;;;5070346;28;19912;-75
2023/10/02 11:28:05;;;;;;;;;;;;;;;;;;5086465;28;19904;-75
2023/10/02 11:30:31;;;;;;;;;;;;;;;;;;5089121;28;19930;-75
2023/10/02 11:33:04;;;;;;;;;;;;;;;;;;5091622;28;19911;-75
2023/10/02 11:35:37;;;;;;;;;;;;;;;;;;5093381;28;19959;-75
2023/10/02 11:38:03;;;;;;;;;;;;;;;;;;5092589;28;19904;-75
2023/10/02 11:40:29;;;;;;;;;;;;;;;;;;5092924;28;19972;-75
2023/10/02 11:42:59;;;;;;;;;;;;;;;;;;5074222;28;19904;-75
2023/10/02 11:45:26;;;;;;;;;;;;;;;;;;5092169;28;20287;-75
2023/10/02 11:47:52;;;;;;;;;;;;;;;;;;5092896;28;19908;-75
2023/10/02 11:50:18;;;;;;;;;;;;;;;;;;5091818;28;19911;-75
2023/10/02 11:52:44;;;;;;;;;;;;;;;;;;5080365;28;19908;-75
2023/10/02 11:55:10;;;;;;;;;;;;;;;;;;5092381;28;19965;-75
2023/10/02 11:57:37;;;;;;;;;;;;;;;;;;5092527;28;19925;-76
2023/10/02 12:00:08;;;;;;;;;;;;;;;;;;5092232;28;19904;-76
2023/10/02 12:02:34;;;;;;;;;;;;;;;;;;5092398;28;19904;-76
2023/10/02 12:05:00;;;;;;;;;;;;;;;;;;5091878;28;19912;-76
2023/10/02 12:07:26;;;;;;;;;;;;;;;;;;5091222;28;19904;-76
2023/10/02 12:09:53;;;;;;;;;;;;;;;;;;5091774;28;19911;-76
2023/10/02 12:12:19;;;;;;;;;;;;;;;;;;5091746;28;19908;-76
2023/10/02 12:14:45;;;;;;;;;;;;;;;;;;5091604;28;19912;-76
2023/10/02 12:17:14;;;;;;;;;;;;;;;;;;5091991;28;19904;-76
2023/10/02 12:19:41;;;;;;;;;;;;;;;;;;5091348;28;20359;-76
2023/10/02 12:22:06;;;;;;;;;;;;;;;;;;5092104;28;19912;-75
2023/10/02 12:24:34;;;;;;;;;;;;;;;;;;5092940;28;19910;-75
2023/10/02 12:27:00;;;;;;;;;;;;;;;;;;5092510;28;20283;-76
2023/10/02 12:29:26;;;;;;;;;;;;;;;;;;5092154;28;20291;-76
2023/10/02 12:31:52;;;;;;;;;;;;;;;;;;5092911;28;19964;-76
2023/10/02 12:34:18;;;;;;;;;;;;;;;;;;5096309;28;19961;-75
2023/10/02 12:36:44;;;;;;;;;;;;;;;;;;5095200;28;20394;-76
2023/10/02 12:39:13;;;;;;;;;;;;;;;;;;5096611;28;20293;-76
2023/10/02 12:41:41;;;;;;;;;;;;;;;;;;5096247;28;19912;-77
2023/10/02 12:44:08;;;;;;;;;;;;;;;;;;5094457;28;20339;-76
2023/10/02 12:46:40;;;;;;;;;;;;;;;;;;5096109;28;20006;-75
2023/10/02 12:49:07;;;;;;;452.30;268.95;;;;;;;;;;5095116;28;20408;-75
2023/10/02 12:51:33;;;;;;;;;;;;;;;;;;5097024;28;20023;-75
2023/10/02 12:53:59;;;;;;;;;;;;;;;;;;5096518;28;19907;-77
2023/10/02 12:56:25;;;;;;;;;;;;;;;;;;5096778;28;19930;-77
2023/10/02 12:58:51;;;;;;;;;;;;;;;;;;5096767;28;19903;-76
2023/10/02 13:01:17;;;;;;;;;;;;;;;;;;5095857;28;19908;-76
2023/10/02 13:03:43;;;;;;;;;;;;;;;;;;5095027;28;19904;-76
2023/10/02 13:06:12;;;;;;;;;;;;;;;;;;5094989;28;20056;-76
2023/10/02 13:08:38;;;;;;;;;;;;;;;;;;5094993;28;19904;-76
2023/10/02 13:11:04;;;;;;;;;;;;;;;;;;5077267;28;19942;-76
2023/10/02 13:13:30;;;;;;;;;;;;;;;;;;5095694;28;19911;-76
2023/10/02 13:15:56;;;;;;;;;;;;;;;;;;5095480;28;20313;-76
2023/10/02 13:18:22;;;;;;;;;;;;;;;;;;5096038;28;19908;-77
2023/10/02 13:20:50;;;;;;;;;;;;;;;;;;5096128;28;19938;-77
2023/10/02 13:23:17;;;;;;;;;;;;;;;;;;5095974;28;19911;-77
2023/10/02 13:25:43;;;;;;;;;;;;;;;;;;5096267;28;20024;-77
2023/10/02 13:28:12;;;;;;;;;;;;;;;;;;5096275;28;20000;-76
2023/10/02 13:30:38;;;;;;;;;;;;;;;;;;5095839;28;19904;-75
2023/10/02 13:33:04;;;;;;;;;;;;;;;;;;5096109;28;19958;-77
2023/10/02 13:35:32;;;;;;;;;;;;;;;;;;5096075;28;19954;-76
2023/10/02 13:38:00;;;;;;;;;;;;;;;;;;5095673;28;20333;-76
2023/10/02 13:40:28;;;;;;;;;;;;;;;;;;5077972;28;20324;-76
2023/10/02 13:42:56;;;;;;;446.42;266.25;;;;;;;;;;5095719;28;19904;-76
2023/10/02 13:45:24;;;;;;;;;;;;;;;;;;5095260;28;20131;-76
2023/10/02 13:47:52;;;;;;;;;;;;;;;;;;5095964;28;20302;-76
2023/10/02 13:50:19;;;;;;;;;;;;;;;;;;5095593;28;19911;-76
2023/10/02 13:52:45;;;;;;;536.87;294.67;;;;;;;;;;5094132;28;20866;-76
2023/10/02 13:55:22;;;;;;;;;;;;;;;;;;5095711;28;20028;-76
2023/10/02 13:57:48;;;;;;;;;;;;;;;;;;5095386;28;19904;-77
2023/10/02 14:00:17;;;;;;;;;;;;;;;;;;5095577;28;19911;-76
2023/10/02 14:02:43;;;;;;;;;;;;;;;;;;5095624;28;20365;-77
2023/10/02 14:05:10;;;;;;;;;;;;;;;;;;5095088;28;20376;-76
2023/10/02 14:07:36;;;;;;;;;;;;;;;;;;5095717;28;19910;-76
2023/10/02 14:10:03;;;;;;;;;;;;;;;;;;5095523;28;19904;-77
2023/10/02 14:12:30;;;;;;;;;;;;;;;;;;5076949;28;19908;-78
2023/10/02 14:14:56;;;;;;;;;;;;;;;;;;5095515;28;19904;-77
2023/10/02 14:17:22;;;;;;;;;;;;;;;;;;5077190;28;20264;-76
2023/10/02 14:19:48;;;;;;;;;;;;;;;;;;5076770;28;19904;-76
2023/10/02 14:22:14;;;;;;;542.28;295.50;;;;;;;;;;5076201;28;20493;-77
2023/10/02 14:24:40;;;;;;;;;;;;;;;;;;5095261;28;20426;-77
2023/10/02 14:27:06;;;;;;;468.60;286.20;;;;;;;;;;5094066;28;20506;-77
2023/10/02 14:29:32;;;;;;;;;;;;;;;;;;5095119;28;20092;-77
2023/10/02 14:31:58;;;;;;;;;;;;;;;;;;5095519;28;20275;-77
2023/10/02 14:34:25;;;;;;;;;;;;;;;;;;5094769;28;20424;-77
2023/10/02 14:36:51;;;;;;;;;;;;;;;;;;5094887;28;19904;-78
2023/10/02 14:39:17;;;;;;;474.20;280.70;;;;;;;;;;5094446;28;20279;-76
2023/10/02 14:41:43;;;;;;;;;;;;;;;;;;5094712;28;20028;-78
2023/10/02 14:44:10;;;;;;;;;;;;;;;;;;5076703;28;19914;-76
2023/10/02 14:46:39;;;;;;;;;;;;;;;;;;5071180;28;20053;-76
2023/10/02 14:49:06;;;;;;;;;;;;;;;;;;5072464;28;19905;-76
2023/10/02 14:51:32;;;;;;;;;;;;;;;;;;5072498;28;20326;-76
2023/10/02 14:53:58;;;;;;;;;;;;;;;;;;5072530;28;19904;-76
2023/10/02 14:56:24;;;;;;;;;;;;;;;;;;5071246;28;19904;-76
2023/10/02 14:58:50;;;;;;;;;;;;;;;;;;5073834;28;19904;-76
2023/10/02 15:01:16;;;;;;;;;;;;;;;;;;5073940;28;19904;-78
2023/10/02 15:03:43;;;;;;;;;;;;;;;;;;5074272;28;19904;-76
2023/10/02 15:06:10;;;;;;;238.57;212.13;;;;;;;;;;5073564;28;20771;-76
2023/10/02 15:08:36;;;;;;;;;;;;;;;;;;5073552;28;20040;-76
2023/10/02 15:11:04;;;;;;;;;;;;;;;;;;5074291;28;19905;-75
2023/10/02 15:13:30;;;;;;;;;;;;;;;;;;5074340;28;19912;-75
2023/10/02 15:15:57;;;;;;;;;;;;;;;;;;5073620;28;19904;-75
2023/10/02 15:18:25;;;;;;;;;;;;;;;;;;5074006;28;19911;-76
2023/10/02 15:20:52;;;;;;;;;;;;;;;;;;5072650;28;19904;-76
2023/10/02 15:23:18;;;;;;;;;;;;;;;;;;5073533;28;19904;-78
2023/10/02 15:25:44;;;;;;;;;;;;;;;;;;5073844;28;19959;-78
2023/10/02 15:28:10;;;;;;;;;;;;;;;;;;5072618;28;19970;-77
2023/10/02 15:30:36;;;;;;;;;;;;;;;;;;5073913;28;19958;-77
2023/10/02 15:33:02;;;;;;;;;;;;;;;;;;5073308;28;19905;-76
2023/10/02 15:35:30;;;;;;;;;;;;;;;;;;5073824;28;19904;-77
2023/10/02 15:37:56;;;;;;;;;;;;;;;;;;5072074;28;19911;-77
2023/10/02 15:40:22;;;;;;;;;;;;;;;;;;5073808;28;19904;-77
2023/10/02 15:42:47;;;;;;;;;;;;;;;;;;5071452;28;19905;-77
2023/10/02 15:45:16;;;;;;;;;;;;;;;;;;5075408;28;19908;-76
2023/10/02 15:47:45;;;;;;;;;;;;;;;;;;5093159;28;19935;-75
2023/10/02 15:50:11;;;;;;;;;;;;;;;;;;5093072;28;19949;-78
2023/10/02 15:52:37;;;;;;;;;;;;;;;;;;5093419;28;20002;-77
2023/10/02 15:55:03;;;;;;;;;;;;;;;;;;5093385;28;19911;-76
2023/10/02 15:57:29;;;;;;;;;;;;;;;;;;5076464;28;20359;-76
2023/10/02 15:59:56;;;;;;;;;;;;;;;;;;5095859;28;20395;-76
2023/10/02 16:02:23;;;;;;;;;;;;;;;;;;5095290;28;19908;-75
2023/10/02 16:04:49;;;;;;;;;;;;;;;;;;5093453;28;19904;-76
2023/10/02 16:07:15;;;;;;;;;;;;;;;;;;5094705;28;19912;-76
2023/10/02 16:09:41;;;;;;;;;;;;;;;;;;5097757;28;19957;-76
2023/10/02 16:12:06;;;;;;;;;;;;;;;;;;5097366;28;19915;-76
2023/10/02 16:14:32;;;;;;;;;;;;;;;;;;5097669;28;19998;-76
2023/10/02 16:16:58;;;;;;;;;;;;;;;;;;5097666;28;19947;-77
2023/10/02 16:19:24;;;;;;;;;;;;;;;;;;5097201;28;19927;-76
2023/10/02 16:21:50;;;;;;;;;;;;;;;;;;5097573;28;19908;-76
2023/10/02 16:24:16;;;;;;;;;;;;;;;;;;5079432;28;19904;-76
2023/10/02 16:26:42;;;;;;;;;;;;;;;;;;5097018;28;19955;-75
2023/10/02 16:29:12;;;;;;;;;;;;;;;;;;5097437;28;19927;-77
2023/10/02 16:31:42;;;;;;;;;;;;;;;;;;5097453;28;19907;-77
2023/10/02 16:34:08;;;;;;;;;;;;;;;;;;5097011;28;20354;-77
2023/10/02 16:36:34;;;;;;;;;;;;;;;;;;5097341;28;19970;-77
2023/10/02 16:39:00;;;;;;;;;;;;;;;;;;5078666;28;20010;-77
2023/10/02 16:41:29;;;;;;;;;;;;;;;;;;5097400;28;19937;-77
2023/10/02 16:43:55;;;;;;;;;;;;;;;;;;5097175;28;19904;-77
2023/10/02 16:46:21;;;;;;;;;;;;;;;;;;5096642;28;19916;-77
2023/10/02 16:48:49;;;;;;;;;;;;;;;;;;5097022;28;19904;-76
2023/10/02 16:53:33;;;;;;;423.58;240.23;;;;;;;;;;5111280;27;20362;-76
2023/10/02 16:56:00;;;;;;;;;;;;;;;;;;5111893;28;20028;-77
2023/10/02 16:58:26;;;;;;;;;;;;;;;;;;5111675;28;20387;-77
2023/10/02 17:00:52;;;;;;;;;;;;;;;;;;5109981;28;19904;-77
2023/10/02 17:03:20;;;;;;;;;;;;;;;;;;5111734;28;20287;-77
2023/10/02 17:05:47;;;;;;;;;;;;;;;;;;5111545;28;19904;-77
2023/10/02 17:08:13;;;;;;;;;;;;;;;;;;5111174;28;19904;-77
2023/10/02 17:12:13;;;;;;;;;;;;;;;;;;5111940;27;20426;-76
2023/10/02 17:17:07;;;;;;;;;;;;;;;;;;5071735;28;20383;-77
2023/10/02 17:19:33;;;;;;;;;;;;;;;;;;5069884;28;20262;-76
2023/10/02 17:21:59;;;;;;;;;;;;;;;;;;5070667;28;19998;-76
2023/10/02 17:25:32;;;;;;;;;;;;;;;;;;5113338;27;20450;-76
2023/10/02 17:27:59;;;;;;;;;;;;;;;;;;5112090;28;19919;-76
2023/10/02 17:34:56;;;;;;;;;;;;;;;;;;5071386;28;20388;-76
2023/10/02 17:37:46;;;;;;;;;;;;;;;;;;5132619;27;19922;-75
2023/10/02 17:40:13;;;;;;;;;;;;;;;;;;5113719;28;19954;-76
2023/10/02 17:42:39;;;;;;;;;;;;;;;;;;5131647;28;19907;-75
2023/10/02 17:45:05;;;;;;;;;;;;;;;;;;5132017;28;19976;-76
2023/10/02 17:47:31;;;;;;;;;;;;;;;;;;5131734;28;19907;-76
2023/10/02 17:49:57;;;;;;;;;;;;;;;;;;5113248;28;19912;-76
2023/10/02 17:52:23;;;;;;;;;;;;;;;;;;5132047;28;20413;-76
2023/10/02 17:54:49;;;;;;;;;;;;;;;;;;5132560;28;20333;-76
2023/10/02 17:59:09;;;;;;;;;;;;;;;;;;5111984;27;19916;-77
2023/10/02 18:01:35;;;;;;;;;;;;;;;;;;5111766;28;19912;-77
2023/10/02 18:04:01;;;;;;;;;;;;;;;;;;5111564;28;19931;-76
2023/10/02 18:06:27;;;;;;;;;;;;;;;;;;5111636;28;20348;-76
2023/10/02 18:08:53;;;;;;;;;;;;;;;;;;5111622;28;20066;-76
2023/10/02 18:11:29;;;;;;;;;;;;;;;;;;5090977;27;19923;-76